Time;durP1;ratioP1;P1;durP2;ratioP2;P2;SDS_P1;SDS_P2;PMS_P1;PMS_P2;Temp;Humidity;BMP_temperature;BMP_pressure;BME280_temperature;BME280_humidity;BME280_pressure;Samples;Min_cycle;Max_cycle;Signal;HPM_P1;HPM_P2
2024/02/21 00:00:40;;;;;;;317.20;75.80;;;;;4.90;97653.00;;;;5024140;28;20436;-67
2024/02/21 00:03:29;;;;;;;326.57;76.47;;;;;5.00;97652.00;;;;5020371;28;20850;-68
2024/02/21 00:06:18;;;;;;;320.90;73.77;;;;;4.90;97645.00;;;;5022543;28;20436;-68
2024/02/21 00:09:09;;;;;;;323.37;74.80;;;;;5.10;97650.00;;;;5026490;28;20439;-68
2024/02/21 00:11:59;;;;;;;324.03;74.37;;;;;4.80;97643.00;;;;5024887;28;20945;-68
2024/02/21 00:14:48;;;;;;;326.13;76.93;;;;;4.70;97641.00;;;;5024734;28;20436;-67
2024/02/21 00:17:39;;;;;;;328.30;77.57;;;;;4.70;97635.00;;;;5026493;28;20976;-67
2024/02/21 00:20:28;;;;;;;315.43;69.47;;;;;5.00;97630.00;;;;5018959;28;20431;-67
2024/02/21 00:23:17;;;;;;;302.33;70.93;;;;;5.20;97637.00;;;;5026641;28;20475;-68
2024/02/21 00:26:07;;;;;;;205.97;71.97;;;;;4.80;97640.00;;;;5025149;28;20444;-67
2024/02/21 00:28:56;;;;;;;212.30;77.87;;;;;5.00;97629.00;;;;5027501;28;20474;-67
2024/02/21 00:31:45;;;;;;;208.90;75.33;;;;;5.10;97634.00;;;;5022458;28;20464;-67
2024/02/21 00:34:36;;;;;;;228.27;77.97;;;;;5.20;97626.00;;;;5022206;28;20440;-67
2024/02/21 00:37:25;;;;;;;252.53;77.50;;;;;5.40;97621.00;;;;5022244;28;20434;-68
2024/02/21 00:40:19;;;;;;;284.87;73.73;;;;;5.40;97619.00;;;;5024085;28;20618;-68
2024/02/21 00:43:08;;;;;;;271.27;77.90;;;;;5.10;97628.00;;;;5026989;28;20464;-68
2024/02/21 00:45:57;;;;;;;;;;;;;5.10;97629.00;;;;5025086;28;20436;-68
2024/02/21 00:48:47;;;;;;;316.83;104.27;;;;;5.40;97632.00;;;;5014008;28;20830;-68
2024/02/21 00:51:37;;;;;;;303.80;80.33;;;;;5.50;97629.00;;;;5021537;28;20520;-67
2024/02/21 00:54:26;;;;;;;316.87;73.90;;;;;5.50;97629.00;;;;5021577;28;20442;-68
2024/02/21 00:57:17;;;;;;;318.93;72.57;;;;;5.40;97623.00;;;;5024357;28;20439;-67
2024/02/21 01:00:08;;;;;;;320.37;76.57;;;;;5.40;97633.00;;;;5024636;28;20470;-68
2024/02/21 01:02:57;;;;;;;438.73;159.87;;;;;5.20;97625.00;;;;4988801;28;20487;-67
2024/02/21 01:05:46;;;;;;;324.13;75.83;;;;;4.80;97610.00;;;;5023756;28;20776;-67
2024/02/21 01:08:37;;;;;;;327.43;75.20;;;;;4.90;97612.00;;;;5023643;28;20817;-67
2024/02/21 01:11:26;;;;;;;321.03;72.40;;;;;5.10;97622.00;;;;5020778;28;20428;-67
2024/02/21 01:14:15;;;;;;;333.93;80.60;;;;;4.90;97621.00;;;;5018547;28;20490;-68
2024/02/21 01:17:06;;;;;;;327.40;82.03;;;;;4.90;97618.00;;;;5025032;28;20436;-67
2024/02/21 01:19:55;;;;;;;331.63;82.10;;;;;4.90;97616.00;;;;5024552;28;20455;-68
2024/02/21 01:22:44;;;;;;;327.10;85.07;;;;;4.90;97612.00;;;;5025498;28;20487;-67
2024/02/21 01:25:34;;;;;;;320.03;72.03;;;;;5.20;97621.00;;;;5029361;28;20431;-68
2024/02/21 01:28:23;;;;;;;332.03;78.90;;;;;5.10;97615.00;;;;5030605;28;20428;-68
2024/02/21 01:31:13;;;;;;;305.20;75.57;;;;;5.20;97614.00;;;;5025466;28;20432;-68
2024/02/21 01:34:02;;;;;;;333.60;80.60;;;;;4.80;97609.00;;;;5020736;28;20864;-68
2024/02/21 01:36:51;;;;;;;335.67;83.53;;;;;4.90;97611.00;;;;5028634;28;20424;-68
2024/02/21 01:39:40;;;;;;;327.63;76.83;;;;;5.10;97606.00;;;;4994536;28;20435;-67
2024/02/21 01:42:30;;;;;;;323.77;76.17;;;;;5.50;97606.00;;;;5024016;28;20854;-68
2024/02/21 01:45:19;;;;;;;320.27;73.67;;;;;5.20;97606.00;;;;5024129;28;20451;-68
2024/02/21 01:48:09;;;;;;;314.63;69.77;;;;;5.60;97605.00;;;;5028967;28;20436;-68
2024/02/21 01:50:58;;;;;;;319.07;81.57;;;;;5.60;97598.00;;;;5018496;28;20523;-68
2024/02/21 01:53:48;;;;;;;336.67;82.13;;;;;5.70;97599.00;;;;5026076;28;20460;-68
2024/02/21 01:56:37;;;;;;;318.43;74.77;;;;;5.80;97602.00;;;;5029774;28;20447;-68
2024/02/21 01:59:28;;;;;;;340.23;83.20;;;;;5.80;97604.00;;;;5022472;28;20432;-68
2024/02/21 02:02:17;;;;;;;321.47;73.93;;;;;5.70;97597.00;;;;5028947;28;20456;-67
2024/02/21 02:05:08;;;;;;;320.27;72.47;;;;;5.30;97591.00;;;;5027400;28;20447;-68
2024/02/21 02:07:57;;;;;;;337.73;81.73;;;;;5.20;97590.00;;;;5028382;28;20440;-68
2024/02/21 02:10:46;;;;;;;324.13;73.57;;;;;5.30;97584.00;;;;5028742;28;20437;-68
2024/02/21 02:13:36;;;;;;;315.90;75.80;;;;;5.70;97581.00;;;;5027140;28;20464;-67
2024/02/21 02:16:26;;;;;;;323.17;74.67;;;;;5.80;97578.00;;;;5026742;28;20800;-68
2024/02/21 02:19:15;;;;;;;325.13;77.57;;;;;5.50;97579.00;;;;5026465;28;20970;-68
2024/02/21 02:22:10;;;;;;;321.13;74.10;;;;;5.40;97576.00;;;;5028875;28;20468;-68
2024/02/21 02:25:01;;;;;;;198.80;79.93;;;;;5.30;97574.00;;;;5027375;28;20804;-68
2024/02/21 02:27:50;;;;;;;346.80;89.30;;;;;5.40;97570.00;;;;5027791;28;20440;-68
2024/02/21 02:30:39;;;;;;;171.53;73.43;;;;;5.60;97574.00;;;;5028328;28;20428;-68
2024/02/21 02:33:28;;;;;;;206.87;79.27;;;;;5.70;97570.00;;;;5022351;28;20456;-67
2024/02/21 02:36:17;;;;;;;183.97;72.23;;;;;5.60;97573.00;;;;5027325;28;20957;-68
2024/02/21 02:39:06;;;;;;;191.97;75.37;;;;;5.80;97567.00;;;;5019136;28;20440;-68
2024/02/21 02:41:57;;;;;;;334.57;79.57;;;;;5.80;97578.00;;;;5027734;28;20429;-67
2024/02/21 02:44:46;;;;;;;191.77;75.40;;;;;5.70;97568.00;;;;5026683;28;20971;-68
2024/02/21 02:47:35;;;;;;;224.33;78.53;;;;;5.40;97552.00;;;;5027626;28;20424;-68
2024/02/21 02:50:24;;;;;;;203.60;74.27;;;3.50;99.90;5.70;97565.00;;;;5022016;28;20431;-68
2024/02/21 02:53:13;;;;;;;192.00;74.47;;;3.40;99.90;5.90;97551.00;;;;5024048;28;20448;-68
2024/02/21 02:56:02;;;;;;;218.03;82.27;;;3.40;99.90;5.90;97558.00;;;;5027233;28;20441;-68
2024/02/21 02:58:52;;;;;;;237.00;86.30;;;4.20;99.90;5.90;97544.00;;;;5027274;28;20429;-68
2024/02/21 03:01:41;;;;;;;199.60;75.60;;;3.50;99.90;5.90;97546.00;;;;5029212;28;20583;-68
2024/02/21 03:04:30;;;;;;;223.67;80.37;;;3.50;99.90;5.70;97555.00;;;;5016155;28;20436;-68
2024/02/21 03:07:19;;;;;;;195.03;74.13;;;3.50;99.90;5.90;97546.00;;;;5028904;28;20489;-68
2024/02/21 03:10:08;;;;;;;200.87;73.40;;;3.50;99.90;5.80;97547.00;;;;5026971;28;20451;-68
2024/02/21 03:12:58;;;;;;;214.67;83.47;;;3.50;99.90;5.90;97543.00;;;;5026994;28;20975;-67
2024/02/21 03:15:48;;;;;;;218.63;79.60;;;3.50;99.90;5.70;97550.00;;;;5027409;28;20432;-68
2024/02/21 03:18:37;;;;;;;168.60;73.93;;;3.50;99.90;5.70;97542.00;;;;5027573;28;20831;-68
2024/02/21 03:21:26;;;;;;;174.40;74.10;;;3.50;99.90;5.00;97551.00;;;;5023307;28;20440;-68
2024/02/21 03:24:15;;;;;;;198.27;82.93;;;3.40;99.90;5.30;97546.00;;;;5020774;28;20471;-68
2024/02/21 03:27:04;;;;;;;343.97;87.33;;;3.30;99.90;5.70;97549.00;;;;5028058;28;21093;-68
2024/02/21 03:29:53;;;;;;;319.60;82.63;;;3.30;99.90;5.80;97550.00;;;;5015263;28;20448;-68
2024/02/21 03:32:44;;;;;;;322.10;73.70;;;3.30;99.90;5.30;97547.00;;;;5027037;28;20464;-68
2024/02/21 03:35:33;;;;;;;167.33;71.30;;;3.30;99.90;5.20;97536.00;;;;5027787;28;20448;-68
2024/02/21 03:38:21;;;;;;;200.50;77.23;;;3.30;99.90;4.90;97551.00;;;;5027262;28;20444;-68
2024/02/21 03:41:10;;;;;;;306.23;75.73;;;3.20;99.90;5.00;97535.00;;;;5026741;28;20444;-68
2024/02/21 03:43:59;;;;;;;192.43;79.87;;;3.10;99.90;4.60;97528.00;;;;5027547;28;20464;-68
2024/02/21 03:46:48;;;;;;;310.63;76.07;;;3.00;99.90;4.90;97533.00;;;;5028098;28;20787;-68
2024/02/21 03:49:38;;;;;;;264.50;85.17;;;3.00;99.90;4.90;97520.00;;;;5018951;28;20428;-67
2024/02/21 03:52:27;;;;;;;317.97;79.50;;;3.00;99.90;5.10;97517.00;;;;5026814;28;20459;-67
2024/02/21 03:55:16;;;;;;;317.63;72.40;;;3.00;99.90;5.20;97523.00;;;;5021169;28;20810;-67
2024/02/21 03:58:05;;;;;;;202.63;76.00;;;3.00;99.90;5.10;97527.00;;;;5026055;28;20432;-67
2024/02/21 04:00:54;;;;;;;211.80;81.53;;;3.00;99.90;5.40;97530.00;;;;5022775;28;20812;-68
2024/02/21 04:03:44;;;;;;;196.77;75.50;;;3.10;99.90;5.40;97532.00;;;;5027343;28;20476;-67
2024/02/21 04:06:34;;;;;;;186.40;72.60;;;3.10;99.90;5.40;97537.00;;;;5018169;28;20429;-67
2024/02/21 04:09:23;;;;;;;191.33;78.50;;;3.10;99.90;5.50;97539.00;;;;5020832;28;20421;-68
2024/02/21 04:12:12;;;;;;;175.60;71.20;;;3.20;99.90;5.40;97538.00;;;;5027410;28;20424;-67
2024/02/21 04:15:01;;;;;;;194.57;76.20;;;3.10;99.90;5.40;97537.00;;;;5024722;28;20961;-68
2024/02/21 04:17:50;;;;;;;194.63;78.53;;;3.10;99.90;5.40;97530.00;;;;5023659;28;20435;-69
2024/02/21 04:20:39;;;;;;;185.77;72.93;;;3.10;99.90;5.40;97534.00;;;;5023181;28;20435;-68
2024/02/21 04:23:29;;;;;;;197.20;73.47;;;3.10;99.90;5.40;97529.00;;;;5026010;28;20464;-68
2024/02/21 04:26:18;;;;;;;216.87;75.30;;;3.10;99.90;5.40;97527.00;;;;5026294;28;20432;-68
2024/02/21 04:29:07;;;;;;;226.20;77.93;;;3.10;99.90;5.40;97528.00;;;;5024695;28;20452;-68
2024/02/21 04:31:56;;;;;;;254.53;85.43;;;3.10;99.90;5.50;97537.00;;;;5017169;28;21227;-68
2024/02/21 04:34:45;;;;;;;242.53;75.37;;;3.10;99.90;5.40;97522.00;;;;5028152;28;20487;-68
2024/02/21 04:37:34;;;;;;;236.53;76.20;;;3.10;99.90;5.20;97526.00;;;;5022585;28;20436;-68
2024/02/21 04:40:24;;;;;;;266.40;79.27;;;3.10;99.90;5.10;97524.00;;;;5022801;28;20427;-68
2024/02/21 04:43:13;;;;;;;252.90;77.20;;;3.10;99.90;4.70;97518.00;;;;5026171;28;21034;-69
2024/02/21 04:46:02;;;;;;;275.00;80.83;;;3.00;99.90;5.00;97516.00;;;;5025752;28;20439;-69
2024/02/21 04:48:51;;;;;;;267.23;88.93;;;3.00;99.90;5.20;97514.00;;;;5023045;28;20499;-68
2024/02/21 04:51:41;;;;;;;310.27;75.60;;;2.90;99.90;5.10;97515.00;;;;5026831;28;20424;-68
2024/02/21 04:54:30;;;;;;;316.47;74.97;;;2.90;99.90;5.20;97517.00;;;;5014850;28;20428;-68
2024/02/21 04:57:20;;;;;;;320.67;74.17;;;2.90;99.90;4.90;97517.00;;;;5020122;28;21144;-68
2024/02/21 05:00:11;;;;;;;250.73;82.10;;;2.90;99.90;4.60;97504.00;;;;5029268;28;20455;-66
2024/02/21 05:02:59;;;;;;;210.30;79.07;;;2.80;99.90;4.70;97512.00;;;;5030527;28;20455;-67
2024/02/21 05:05:48;;;;;;;219.30;73.40;;;2.70;99.90;4.30;97512.00;;;;5028932;28;20428;-69
2024/02/21 05:08:37;;;;;;;321.60;77.53;;;2.70;99.90;4.50;97513.00;;;;5030446;28;21304;-68
2024/02/21 05:11:26;;;;;;;316.57;77.17;;;2.60;99.90;4.60;97516.00;;;;5029138;28;20523;-69
2024/02/21 05:14:17;;;;;;;329.57;88.83;;;2.60;99.90;4.40;97505.00;;;;5030180;28;20467;-68
2024/02/21 05:17:06;;;;;;;327.77;81.53;;;2.50;99.90;4.70;97503.00;;;;5028518;28;20436;-68
2024/02/21 05:19:55;;;;;;;318.67;72.27;;;2.60;99.90;4.50;97498.00;;;;5019398;28;20432;-68
2024/02/21 05:22:44;;;;;;;323.30;75.13;;;2.50;99.90;4.50;97498.00;;;;5023702;28;20448;-68
2024/02/21 05:25:32;;;;;;;315.70;70.87;;;2.50;99.90;4.20;97501.00;;;;5025654;28;20443;-68
2024/02/21 05:28:21;;;;;;;326.63;77.43;;;2.40;99.90;4.50;97495.00;;;;5030157;28;20443;-68
2024/02/21 05:31:11;;;;;;;207.33;72.50;;;2.30;99.90;4.40;97497.00;;;;5029047;28;20443;-68
2024/02/21 05:34:04;;;;;;;323.67;78.17;;;2.30;99.90;4.20;97494.00;;;;5028379;28;20467;-68
2024/02/21 05:36:53;;;;;;;323.10;76.30;;;2.30;99.90;3.80;97495.00;;;;5028145;28;20514;-68
2024/02/21 05:39:42;;;;;;;324.00;76.50;;;2.20;99.90;4.30;97510.00;;;;4986687;28;20440;-68
2024/02/21 05:42:31;;;;;;;318.67;73.47;;;2.10;99.90;4.40;97500.00;;;;5015976;28;20448;-67
2024/02/21 05:45:20;;;;;;;334.87;83.43;;;2.20;99.90;4.20;97503.00;;;;5018972;28;20999;-68
2024/02/21 05:48:10;;;;;;;343.47;90.43;;;1.60;99.90;3.90;97498.00;;;;4988568;28;23193;-67
2024/02/21 05:50:59;;;;;;;194.03;74.30;;;2.10;99.90;4.00;97498.00;;;;5026545;28;20436;-69
2024/02/21 05:53:48;;;;;;;375.47;146.67;;;2.00;99.90;4.20;97493.00;;;;5019074;28;20467;-68
2024/02/21 05:56:37;;;;;;;323.13;75.20;;;2.00;99.90;4.20;97498.00;;;;5023266;28;20444;-69
2024/02/21 05:59:26;;;;;;;332.70;84.10;;;2.00;99.90;4.10;97497.00;;;;5021920;28;20424;-68
2024/02/21 06:02:15;;;;;;;198.20;74.30;;;2.00;99.90;4.10;97493.00;;;;4998476;28;20444;-69
2024/02/21 06:05:07;;;;;;;321.10;76.83;;;2.00;99.90;3.90;97487.00;;;;4997853;28;20976;-68
2024/02/21 06:07:56;;;;;;;330.23;86.17;;;2.00;99.90;4.10;97488.00;;;;5026691;28;20851;-69
2024/02/21 06:10:45;;;;;;;316.83;75.67;;;2.00;99.90;4.30;97491.00;;;;5028894;28;20435;-68
2024/02/21 06:13:34;;;;;;;312.60;73.13;;;2.10;99.90;4.40;97489.00;;;;5023270;28;20464;-69
2024/02/21 06:16:23;;;;;;;315.27;77.20;;;2.20;99.90;3.90;97488.00;;;;4991430;28;20436;-68
2024/02/21 06:19:11;;;;;;;312.83;68.97;;;2.20;99.90;3.60;97473.00;;;;4987527;28;20440;-68
2024/02/21 06:22:07;;;;;;;319.20;73.13;;;2.10;99.90;4.40;97491.00;;;;5023725;28;20493;-69
2024/02/21 06:24:56;;;;;;;338.87;85.10;;;2.10;99.90;4.30;97482.00;;;;5020937;28;20456;-69
2024/02/21 06:27:45;;;;;;;374.37;116.07;;;2.20;99.90;4.00;97482.00;;;;4972684;28;20529;-68
2024/02/21 06:30:34;;;;;;;451.23;178.23;;;;;3.80;97478.00;;;;5003389;28;20448;-68
2024/02/21 06:33:24;;;;;;;318.93;73.53;;;2.10;99.90;4.20;97489.00;;;;5006893;28;20809;-68
2024/02/21 06:36:13;;;;;;;451.23;183.63;;;2.20;99.90;4.50;97485.00;;;;4977823;28;20470;-69
2024/02/21 06:39:07;;;;;;;269.10;83.97;;;2.20;99.90;4.20;97490.00;;;;4982003;28;21020;-68
2024/02/21 06:41:56;;;;;;;283.73;82.20;;;2.30;99.90;4.40;97494.00;;;;5016678;28;20459;-68
2024/02/21 06:44:46;;;;;;;313.17;70.23;;;2.20;99.90;4.40;97517.00;;;;5022147;28;20514;-68
2024/02/21 06:47:35;;;;;;;329.73;95.07;;;2.30;99.90;4.40;97525.00;;;;5020733;28;20425;-68
2024/02/21 06:50:24;;;;;;;457.60;180.27;;;;;4.50;97510.00;;;;5005981;28;20777;-69
2024/02/21 06:53:13;;;;;;;313.67;69.37;;;2.50;99.90;4.60;97505.00;;;;5017316;28;20456;-68
2024/02/21 06:56:04;;;;;;;329.73;79.63;;;2.40;99.90;4.90;97517.00;;;;5024809;28;20447;-69
2024/02/21 06:58:53;;;;;;;324.17;76.70;;;2.50;99.90;5.00;97513.00;;;;5015577;28;20440;-69
2024/02/21 07:01:46;;;;;;;376.53;187.23;;;2.70;99.90;4.90;97511.00;;;;4954180;28;20433;-68
2024/02/21 07:04:35;;;;;;;217.30;85.00;;;;;5.10;97511.00;;;;4949845;28;21477;-67
2024/02/21 07:07:24;;;;;;;348.30;187.17;;;2.80;99.90;5.30;97526.00;;;;4958976;28;20535;-68
2024/02/21 07:10:14;;;;;;;292.97;148.47;;;2.90;99.90;5.40;97520.00;;;;4955385;28;20440;-68
2024/02/21 07:13:04;;;;;;;347.30;193.23;;;3.00;99.90;5.30;97518.00;;;;4958030;28;20554;-68
2024/02/21 07:15:54;;;;;;;318.27;161.63;;;3.00;99.90;5.40;97515.00;;;;4956798;28;20444;-68
2024/02/21 07:18:43;;;;;;;337.03;183.40;;;3.10;99.90;5.70;97525.00;;;;4957615;28;20540;-68
2024/02/21 07:21:32;;;;;;;193.50;76.07;;;3.20;99.90;5.70;97523.00;;;;5012909;28;20585;-68
2024/02/21 07:24:21;;;;;;;204.60;77.63;;;3.20;99.90;5.20;97521.00;;;;5025399;28;20456;-67
2024/02/21 07:27:10;;;;;;;195.37;75.83;;;3.30;99.90;4.80;97519.00;;;;5013706;28;20444;-68
2024/02/21 07:30:00;;;;;;;232.53;91.20;;;3.20;99.90;4.90;97511.00;;;;5014321;28;20451;-68
2024/02/21 07:32:51;;;;;;;178.40;76.27;;;3.10;99.90;5.30;97509.00;;;;5013494;28;20468;-68
2024/02/21 07:35:41;;;;;;;174.60;72.30;;;3.20;99.90;5.50;97505.00;;;;5027865;28;20438;-67
2024/02/21 07:38:30;;;;;;;182.37;74.53;;;3.20;99.90;5.50;97504.00;;;;5028219;28;21000;-68
2024/02/21 07:41:19;;;;;;;191.23;78.57;;;3.30;99.90;5.40;97498.00;;;;5022932;28;20447;-68
2024/02/21 07:44:08;;;;;;;227.83;93.10;;;3.30;99.90;5.60;97500.00;;;;5027680;28;20455;-68
2024/02/21 07:46:58;;;;;;;280.67;94.43;;;3.30;99.90;6.00;97494.00;;;;5023992;28;20436;-68
2024/02/21 07:49:48;;;;;;;291.90;83.20;;;3.40;99.90;6.60;97504.00;;;;5026056;28;20432;-67
2024/02/21 07:52:37;;;;;;;241.47;79.90;;;3.60;99.90;6.30;97497.00;;;;5027190;28;20463;-67
2024/02/21 07:55:26;;;;;;;307.27;81.20;;;3.80;99.90;6.10;97495.00;;;;5024733;28;20439;-67
2024/02/21 07:58:15;;;;;;;319.47;80.03;;;3.90;99.90;6.70;97493.00;;;;5030421;28;20434;-67
2024/02/21 08:01:04;;;;;;;338.73;86.60;;;4.10;99.90;6.90;97489.00;;;;5036791;28;20434;-67
2024/02/21 08:03:54;;;;;;;345.30;86.17;;;4.30;99.90;7.00;97491.00;;;;5024944;28;20452;-67
2024/02/21 08:06:45;;;;;;;313.10;77.90;;;4.40;99.90;7.20;97494.00;;;;5032026;28;20471;-68
2024/02/21 08:09:34;;;;;;;343.07;87.17;;;4.50;99.90;7.30;97483.00;;;;5026598;28;20432;-68
2024/02/21 08:12:23;;;;;;;319.50;83.37;;;4.60;99.90;7.40;97488.00;;;;5028041;28;20455;-67
2024/02/21 08:15:12;;;;;;;332.23;79.90;;;4.70;99.90;7.60;97480.00;;;;5027743;28;20455;-67
2024/02/21 08:18:01;;;;;;;352.70;117.97;;;4.90;99.90;7.80;97482.00;;;;5027294;28;20789;-68
2024/02/21 08:20:52;;;;;;;332.97;82.53;;;5.00;99.90;8.40;97477.00;;;;5029988;28;20437;-67
2024/02/21 08:23:41;;;;;;;338.87;85.20;;;5.20;99.90;8.50;97483.00;;;;5037705;28;20458;-68
2024/02/21 08:26:30;;;;;;;335.87;82.60;;;5.40;99.90;8.10;97461.00;;;;5024348;28;20475;-68
2024/02/21 08:29:19;;;;;;;336.77;91.37;;;5.60;99.90;8.00;97455.00;;;;5024457;28;20448;-67
2024/02/21 08:32:08;;;;;;;342.50;92.07;;;5.80;99.90;8.50;97459.00;;;;5035158;28;20817;-68
2024/02/21 08:34:57;;;;;;;347.07;96.90;;;5.80;99.90;8.70;97463.00;;;;5027095;28;20443;-68
2024/02/21 08:37:48;;;;;;;293.77;89.93;;;6.00;99.90;8.90;97456.00;;;;5031948;28;20437;-68
2024/02/21 08:40:37;;;;;;;337.53;84.20;;;6.20;99.90;9.20;97461.00;;;;5029479;28;20205;-68
2024/02/21 08:43:26;;;;;;;348.13;113.20;;;6.40;99.90;9.80;97468.00;;;;5031824;28;20474;-68
2024/02/21 08:46:14;;;;;;;338.20;99.00;;;6.60;99.90;10.20;97468.00;;;;5028148;28;21003;-68
2024/02/21 08:49:03;;;;;;;349.47;104.43;;;6.90;99.90;10.50;97472.00;;;;5038486;28;20444;-68
2024/02/21 08:51:52;;;;;;;341.10;93.80;;;7.10;99.90;10.70;97469.00;;;;5027578;28;20460;-68
2024/02/21 08:54:42;;;;;;;336.53;86.13;;;7.40;99.90;11.00;97459.00;;;;5025561;28;20440;-68
2024/02/21 08:57:36;;;;;;;339.70;91.23;;;7.60;99.90;11.20;97465.00;;;;5033878;28;20432;-68
2024/02/21 09:00:27;;;;;;;337.13;93.73;;;7.80;99.90;11.50;97465.00;;;;5033630;28;20440;-67
2024/02/21 09:03:17;;;;;;;225.17;102.70;;;8.10;99.90;11.60;97452.00;;;;5027731;28;20988;-67
2024/02/21 09:06:07;;;;;;;244.70;112.10;;;8.20;99.90;11.80;97449.00;;;;5030057;28;20228;-68
2024/02/21 09:08:58;;;;;;;237.20;113.83;;;8.40;99.90;12.10;97455.00;;;;5032805;28;20733;-69
2024/02/21 09:11:48;;;;;;;226.40;102.13;;;8.60;99.90;12.40;97444.00;;;;5032825;28;20198;-68
2024/02/21 09:14:39;;;;;;;234.53;109.13;;;8.80;99.90;12.50;97443.00;;;;5067526;22;20717;-66
2024/02/21 09:17:29;;;;;;;220.80;108.93;;;9.00;99.90;12.40;97442.00;;;;5047389;28;20201;-67
2024/02/21 09:20:18;;;;;;;207.90;108.37;;;9.10;99.90;12.50;97451.00;;;;5047759;28;20197;-67
2024/02/21 09:23:06;;;;;;;213.80;112.67;;;9.30;99.90;12.60;97444.00;;;;5046139;28;20250;-67
2024/02/21 09:25:56;;;;;;;207.17;111.97;;;9.40;99.90;12.90;97436.00;;;;5044026;28;20239;-66
2024/02/21 09:28:46;;;;;;;209.23;117.57;;;9.50;99.30;13.20;97449.00;;;;5046639;28;20215;-66
2024/02/21 09:31:35;;;;;;;204.10;109.73;;;9.70;98.70;13.20;97440.00;;;;5037528;28;20258;-67
2024/02/21 09:34:24;;;;;;;201.37;110.53;;;9.90;97.10;13.00;97433.00;;;;5042183;28;20225;-67
2024/02/21 09:37:13;;;;;;;195.57;110.93;;;9.90;95.00;13.20;97427.00;;;;5039364;28;20250;-67
2024/02/21 09:40:01;;;;;;;211.57;123.40;;;10.00;94.10;13.40;97437.00;;;;5044494;28;20212;-67
2024/02/21 09:42:56;;;;;;;205.00;115.67;;;10.30;99.90;13.70;97432.00;;;;5045630;28;20208;-67
2024/02/21 09:45:48;;;;;;;212.37;122.90;;;10.30;94.40;13.80;97422.00;;;;5043135;28;20224;-66
2024/02/21 09:49:03;;;;;;;204.07;116.33;;;10.60;94.10;14.00;97425.00;;;;5044578;28;20200;-67
2024/02/21 09:51:54;;;;;;;207.57;119.43;;;10.70;94.10;14.10;97411.00;;;;5046115;28;20208;-67
2024/02/21 09:54:44;;;;;;;215.47;119.83;;;10.90;93.40;13.90;97418.00;;;;5041176;28;20225;-66
2024/02/21 09:57:34;;;;;;;207.90;120.60;;;11.00;91.80;14.20;97409.00;;;;5046732;28;20193;-66
2024/02/21 10:00:24;;;;;;;214.80;126.17;;;11.10;91.80;14.60;97411.00;;;;5039246;28;20208;-66
2024/02/21 10:03:14;;;;;;;220.50;126.77;;;11.30;91.40;14.80;97407.00;;;;5045637;28;20228;-68
2024/02/21 10:06:04;;;;;;;232.77;130.60;;;11.50;90.00;14.80;97418.00;;;;5039063;28;20221;-67
2024/02/21 10:08:55;;;;;;;239.73;137.70;;;11.60;89.50;15.00;97407.00;;;;5044027;28;20215;-67
2024/02/21 10:11:44;;;;;;;232.27;134.43;;;11.80;87.70;15.10;97398.00;;;;5039665;28;20208;-66
2024/02/21 10:14:33;;;;;;;233.90;132.73;;;11.90;85.30;15.40;97404.00;;;;5046610;28;20239;-66
2024/02/21 10:17:22;;;;;;;227.23;131.03;;;12.00;84.60;15.40;97402.00;;;;5047290;28;20561;-66
2024/02/21 10:20:14;;;;;;;232.50;132.10;;;12.10;82.40;15.30;97397.00;;;;5045552;28;20197;-67
2024/02/21 10:23:07;;;;;;;240.33;140.70;;;12.20;82.10;15.30;97384.00;;;;5046157;28;20715;-67
2024/02/21 10:26:06;;;;;;;236.40;139.67;;;12.30;79.50;13.90;97380.00;;;;5041423;28;20252;-68
2024/02/21 10:28:55;;;;;;;239.70;140.40;;;12.20;77.10;14.90;97400.00;;;;5044641;28;20210;-66
2024/02/21 10:31:44;;;;;;;220.73;131.97;;;12.20;78.50;14.30;97385.00;;;;5041344;28;20209;-67
2024/02/21 10:34:33;;;;;;;223.07;131.30;;;12.20;77.90;12.80;97375.00;;;;5041994;28;20229;-70
2024/02/21 10:37:23;;;;;;;225.03;132.23;;;12.10;76.60;15.30;97364.00;;;;5048048;28;20216;-68
2024/02/21 10:40:13;;;;;;;226.47;133.50;;;12.20;80.80;16.00;97375.00;;;;5045787;28;20208;-66
2024/02/21 10:43:03;;;;;;;253.07;147.60;;;12.50;78.80;16.80;97371.00;;;;5041424;28;20231;-67
2024/02/21 10:45:54;;;;;;;261.10;150.50;;;12.80;79.40;17.00;97345.00;;;;5040948;28;20208;-67
2024/02/21 10:48:45;;;;;;;274.40;162.17;;;13.40;86.70;15.10;97330.00;;;;5047191;28;20720;-66
2024/02/21 10:51:36;;;;;;;262.47;157.37;;;13.50;70.30;16.00;97333.00;;;;5044836;28;20212;-66
2024/02/21 10:54:44;;;;;;;279.47;166.60;;;13.70;71.70;17.80;97340.00;;;;5047275;28;20233;-67
2024/02/21 10:57:33;;;;;;;285.70;174.33;;;14.20;73.30;18.40;97337.00;;;;5044527;28;20582;-66
2024/02/21 11:00:27;;;;;;;303.70;186.10;;;14.80;71.30;18.40;97325.00;;;;5046601;28;20230;-67
2024/02/21 11:03:16;;;;;;;315.63;208.50;;;15.40;70.20;18.70;97331.00;;;;5046760;28;20239;-67
2024/02/21 11:06:06;;;;;;;337.70;225.20;;;15.90;65.00;19.30;97312.00;;;;5046487;28;20696;-67
2024/02/21 11:09:05;;;;;;;354.27;244.33;;;16.20;65.70;20.30;97315.00;;;;5043523;28;20213;-67
2024/02/21 11:11:55;;;;;;;361.43;251.80;;;;;20.90;97304.00;;;;5040168;28;20212;-67
2024/02/21 11:14:44;;;;;;;364.73;264.00;;;17.40;64.70;20.20;97307.00;;;;5042224;28;20260;-67
2024/02/21 11:17:33;;;;;;;378.90;285.40;;;17.60;60.60;21.10;97291.00;;;;5039613;28;21679;-67
2024/02/21 11:20:35;;;;;;;385.20;296.00;;;17.80;62.40;21.10;97285.00;;;;5041617;28;20208;-67
2024/02/21 11:23:27;;;;;;;380.67;306.03;;;18.10;60.00;19.60;97297.00;;;;5043419;28;20243;-67
2024/02/21 11:26:20;;;;;;;386.23;320.37;;;18.50;57.60;20.20;97267.00;;;;5042852;28;20216;-68
2024/02/21 11:29:11;;;;;;;385.10;320.93;;;18.10;57.60;21.00;97276.00;;;;5041526;28;20204;-67
2024/02/21 11:32:00;;;;;;;400.30;329.10;;;18.20;58.80;20.10;97293.00;;;;5038038;28;20208;-68
2024/02/21 11:34:56;;;;;;;367.77;313.67;;;18.10;57.00;18.50;97290.00;;;;5042079;28;20269;-68
2024/02/21 11:37:46;;;;;;;358.77;302.13;;;17.80;57.30;18.20;97275.00;;;;5039023;28;20208;-67
2024/02/21 11:40:35;;;;;;;344.90;286.97;;;16.70;57.60;18.00;97274.00;;;;5042814;28;20674;-67
2024/02/21 11:43:24;;;;;;;336.50;268.27;;;16.30;58.70;17.90;97277.00;;;;5042488;28;20220;-67
2024/02/21 11:46:16;;;;;;;321.87;254.77;;;15.80;59.00;17.80;97276.00;;;;5046214;28;20219;-67
2024/02/21 11:49:05;;;;;;;325.63;249.87;;;15.50;59.60;16.90;97272.00;;;;5043527;28;20205;-67
2024/02/21 11:52:00;;;;;;;302.93;226.37;;;15.20;59.30;15.90;97262.00;;;;5046692;28;20297;-66
2024/02/21 11:54:50;;;;;;;290.43;208.70;;;14.50;59.40;16.70;97254.00;;;;5043020;28;20637;-66
2024/02/21 11:57:42;;;;;;;303.50;201.13;;;14.20;60.20;16.00;97253.00;;;;5043043;28;20192;-66
2024/02/21 12:00:32;;;;;;;296.60;188.33;;;14.00;60.00;16.30;97257.00;;;;5045430;28;20205;-65
2024/02/21 12:03:23;;;;;;;302.93;185.93;;;13.80;60.70;16.60;97253.00;;;;5044997;28;20223;-66
2024/02/21 12:06:11;;;;;;;313.23;193.27;;;13.70;62.70;16.50;97252.00;;;;5044373;28;20219;-66
2024/02/21 12:09:00;;;;;;;281.03;186.37;;;13.70;62.70;16.80;97253.00;;;;5044213;28;20209;-66
2024/02/21 12:11:59;;;;;;;277.43;175.47;;;13.70;63.50;17.20;97236.00;;;;5044922;28;20215;-66
2024/02/21 12:14:47;;;;;;;287.20;180.83;;;13.80;63.10;18.10;97215.00;;;;5043382;28;20307;-66
2024/02/21 12:17:37;;;;;;;304.27;181.20;;;14.20;63.20;19.40;97218.00;;;;5041614;28;20201;-66
2024/02/21 12:20:28;;;;;;;327.13;201.87;;;14.90;62.70;20.40;97210.00;;;;5039796;28;20197;-66
2024/02/21 12:23:20;;;;;;;354.10;216.40;;;15.60;62.50;21.10;97188.00;;;;5038324;28;20232;-66
2024/02/21 12:26:09;;;;;;;385.87;255.07;;;16.50;59.10;18.80;97173.00;;;;5036837;28;20223;-68
2024/02/21 12:28:58;;;;;;;398.80;274.03;;;17.10;56.40;20.80;97180.00;;;;5036714;28;20234;-67
2024/02/21 12:31:47;;;;;;;389.60;284.70;;;17.40;56.30;21.70;97181.00;;;;5041571;28;20844;-66
2024/02/21 12:34:36;;;;;;;401.57;312.27;;;17.80;56.30;22.80;97191.00;;;;5042081;28;20867;-67
2024/02/21 12:37:27;;;;;;;406.43;333.80;;;18.50;56.80;22.70;97181.00;;;;5043831;28;21016;-67